Time;durP1;ratioP1;P1;durP2;ratioP2;P2;SDS_P1;SDS_P2;PMS_P1;PMS_P2;Temp;Humidity;BMP_temperature;BMP_pressure;BME280_temperature;BME280_humidity;BME280_pressure;Samples;Min_cycle;Max_cycle;Signal;HPM_P1;HPM_P2
2022/11/25 00:01:11;;;;;;;4.78;3.65;;;;;;;;;;5074428;28;20048;-63
2022/11/25 00:03:37;;;;;;;5.85;3.88;;;;;;;;;;5074956;28;20668;-63
2022/11/25 00:06:19;;;;;;;6.00;3.70;;;;;;;;;;5075056;28;20021;-63
2022/11/25 00:08:46;;;;;;;6.35;4.47;;;;;;;;;;5075183;28;20473;-65
2022/11/25 00:11:13;;;;;;;6.30;3.97;;;;;;;;;;5074872;28;20047;-62
2022/11/25 00:13:40;;;;;;;6.03;4.00;;;;;;;;;;5074696;28;20027;-64
2022/11/25 00:16:09;;;;;;;5.88;3.85;;;;;;;;;;5074810;28;20491;-64
2022/11/25 00:18:35;;;;;;;6.50;3.92;;;;;;;;;;5074706;28;20108;-66
2022/11/25 00:21:11;;;;;;;6.32;3.70;;;;;;;;;;5074664;28;20465;-68
2022/11/25 00:23:37;;;;;;;6.75;3.97;;;;;;;;;;5074513;28;20086;-65
2022/11/25 00:26:09;;;;;;;6.18;4.20;;;;;;;;;;5074538;28;20392;-67
2022/11/25 00:28:35;;;;;;;3.55;3.25;;;;;;;;;;5074472;28;20028;-65
2022/11/25 00:31:09;;;;;;;5.40;3.65;;;;;;;;;;5074483;28;20048;-64
2022/11/25 00:33:35;;;;;;;5.90;4.18;;;;;;;;;;5074750;28;20381;-64
2022/11/25 00:36:02;;;;;;;6.80;3.60;;;;;;;;;;5074389;28;20439;-64
2022/11/25 00:38:28;;;;;;;4.65;3.42;;;;;;;;;;5074299;28;20024;-64
2022/11/25 00:46:22;;;;;;;5.40;3.78;;;;;;;;;;5074287;28;20063;-68
2022/11/25 00:48:47;;;;;;;7.55;4.10;;;;;;;;;;5074061;28;20024;-63
2022/11/25 00:51:13;;;;;;;6.03;4.10;;;;;;;;;;5074081;28;20020;-63
2022/11/25 00:53:38;;;;;;;5.47;3.72;;;;;;;;;;5073967;28;20024;-65
2022/11/25 00:56:13;;;;;;;5.75;3.70;;;;;;;;;;5074016;28;20020;-63
2022/11/25 00:58:40;;;;;;;4.35;3.60;;;;;;;;;;5073999;28;20388;-64
2022/11/25 01:01:06;;;;;;;4.97;3.70;;;;;;;;;;5073798;28;20399;-63
2022/11/25 01:03:31;;;;;;;5.13;3.33;;;;;;;;;;5073829;28;20024;-63
2022/11/25 01:06:01;;;;;;;5.72;3.65;;;;;;;;;;5073819;28;20025;-64
2022/11/25 01:08:31;;;;;;;5.13;3.58;;;;;;;;;;5073629;28;20031;-64
2022/11/25 01:11:02;;;;;;;5.00;3.80;;;;;;;;;;5073347;28;20100;-63
2022/11/25 01:13:28;;;;;;;4.65;3.80;;;;;;;;;;5073435;28;20505;-64
2022/11/25 01:15:54;;;;;;;6.47;3.70;;;;;;;;;;5073589;28;20063;-63
2022/11/25 01:18:19;;;;;;;5.03;3.75;;;;;;;;;;5073595;28;20052;-64
2022/11/25 01:20:45;;;;;;;5.55;4.38;;;;;;;;;;5073492;28;20028;-68
2022/11/25 01:23:10;;;;;;;5.82;3.67;;;;;;;;;;5073468;28;20035;-68
2022/11/25 01:25:39;;;;;;;5.85;3.65;;;;;;;;;;5073476;28;20056;-68
2022/11/25 01:28:05;;;;;;;4.53;3.10;;;;;;;;;;5073277;28;20387;-68
2022/11/25 01:30:31;;;;;;;4.22;2.92;;;;;;;;;;5073312;28;20049;-68
2022/11/25 01:32:57;;;;;;;6.10;3.72;;;;;;;;;;5073251;28;20063;-69
2022/11/25 01:35:23;;;;;;;5.95;3.30;;;;;;;;;;5073434;28;20060;-68
2022/11/25 01:37:48;;;;;;;4.28;3.28;;;;;;;;;;5073200;28;20032;-68
2022/11/25 01:40:14;;;;;;;5.35;3.80;;;;;;;;;;5055267;28;20081;-68
2022/11/25 01:42:45;;;;;;;4.45;3.63;;;;;;;;;;5073039;28;20025;-67
2022/11/25 01:45:23;;;;;;;4.57;3.58;;;;;;;;;;5073049;28;20468;-65
2022/11/25 01:47:52;;;;;;;4.45;3.45;;;;;;;;;;5072928;28;20119;-68
2022/11/25 01:50:20;;;;;;;5.10;3.55;;;;;;;;;;5072887;28;20087;-64
2022/11/25 01:52:49;;;;;;;5.03;3.65;;;;;;;;;;5072820;28;20024;-66
2022/11/25 01:55:28;;;;;;;6.95;3.80;;;;;;;;;;5072922;28;20436;-63
2022/11/25 01:58:00;;;;;;;5.07;3.38;;;;;;;;;;5072770;28;20025;-65
2022/11/25 02:00:25;;;;;;;5.93;3.42;;;;;;;;;;5072905;28;20184;-63
2022/11/25 02:02:52;;;;;;;6.20;3.50;;;;;;;;;;5073050;28;20096;-63
2022/11/25 02:05:21;;;;;;;4.25;3.25;;;;;;;;;;5072623;28;20017;-63
2022/11/25 02:07:48;;;;;;;4.03;3.20;;;;;;;;;;5072654;28;20384;-63
2022/11/25 02:10:20;;;;;;;5.57;3.97;;;;;;;;;;5072645;28;20032;-64
2022/11/25 02:12:46;;;;;;;5.57;3.67;;;;;;;;;;5054840;28;20115;-64
2022/11/25 02:15:13;;;;;;;5.93;4.03;;;;;;;;;;5072406;28;20048;-68
2022/11/25 02:17:40;;;;;;;5.63;3.42;;;;;;;;;;5072507;28;20476;-68
2022/11/25 02:20:07;;;;;;;4.30;3.35;;;;;;;;;;5072689;28;20186;-64
2022/11/25 02:22:45;;;;;;;5.78;3.47;;;;;;;;;;5071991;28;20028;-65
2022/11/25 02:25:24;;;;;;;5.32;3.40;;;;;;;;;;5072699;28;20028;-65
2022/11/25 02:27:58;;;;;;;4.95;3.45;;;;;;;;;;5072638;28;20028;-68
2022/11/25 02:30:23;;;;;;;6.45;3.92;;;;;;;;;;5072426;28;20021;-67
2022/11/25 02:32:49;;;;;;;5.20;3.33;;;;;;;;;;5072372;28;20027;-64
2022/11/25 02:35:38;;;;;;;4.28;3.75;;;;;;;;;;5072438;28;20029;-64
2022/11/25 02:38:12;;;;;;;4.85;3.47;;;;;;;;;;5072367;28;20491;-65
2022/11/25 02:41:02;;;;;;;6.55;3.63;;;;;;;;;;5072204;28;20032;-69
2022/11/25 02:43:28;;;;;;;4.97;3.50;;;;;;;;;;5072344;28;20464;-68
2022/11/25 02:45:58;;;;;;;5.10;3.47;;;;;;;;;;5072233;28;20032;-69
2022/11/25 02:48:25;;;;;;;4.70;3.42;;;;;;;;;;5072407;28;20439;-68
2022/11/25 02:50:53;;;;;;;4.13;3.60;;;;;;;;;;5072448;28;20035;-68
2022/11/25 02:53:19;;;;;;;4.25;3.30;;;;;;;;;;5072120;28;20028;-68
2022/11/25 02:55:45;;;;;;;5.03;3.40;;;;;;;;;;5054194;28;20025;-69
2022/11/25 02:58:12;;;;;;;3.97;3.28;;;;;;;;;;5072387;28;20032;-68
2022/11/25 03:00:37;;;;;;;4.85;3.47;;;;;;;;;;5072094;28;20040;-69
2022/11/25 03:03:05;;;;;;;5.35;3.20;;;;;;;;;;5072023;28;20028;-69
2022/11/25 03:05:31;;;;;;;5.20;3.40;;;;;;;;;;5072029;28;20303;-68
2022/11/25 03:07:56;;;;;;;3.58;3.13;;;;;;;;;;5071975;28;20056;-68
2022/11/25 03:10:24;;;;;;;4.90;3.22;;;;;;;;;;5072305;28;20086;-63
2022/11/25 03:12:49;;;;;;;8.50;3.92;;;;;;;;;;5072017;28;20029;-63
2022/11/25 03:15:17;;;;;;;4.00;3.15;;;;;;;;;;5035147;28;20056;-63
2022/11/25 03:17:42;;;;;;;4.43;3.40;;;;;;;;;;5032446;28;20162;-63
2022/11/25 03:20:09;;;;;;;4.45;3.40;;;;;;;;;;5032058;28;20643;-64
2022/11/25 03:22:35;;;;;;;5.72;3.35;;;;;;;;;;5032240;28;20029;-64
2022/11/25 03:25:00;;;;;;;4.20;2.97;;;;;;;;;;5032252;28;20404;-64
2022/11/25 03:27:26;;;;;;;5.72;3.55;;;;;;;;;;5031929;28;20055;-62
2022/11/25 03:29:52;;;;;;;4.97;3.13;;;;;;;;;;5030533;28;20029;-62
2022/11/25 03:32:17;;;;;;;4.43;3.33;;;;;;;;;;5031967;28;20034;-63
2022/11/25 03:34:43;;;;;;;4.90;3.60;;;;;;;;;;5034233;28;20033;-63
2022/11/25 03:37:10;;;;;;;4.55;3.50;;;;;;;;;;5035455;28;20064;-64
2022/11/25 03:39:36;;;;;;;5.35;3.22;;;;;;;;;;5035493;28;20079;-63
2022/11/25 03:42:02;;;;;;;4.65;3.42;;;;;;;;;;5035513;28;20477;-64
2022/11/25 03:44:27;;;;;;;4.57;3.20;;;;;;;;;;5035383;28;20032;-64
2022/11/25 03:46:54;;;;;;;5.00;3.60;;;;;;;;;;5035451;28;20038;-63
2022/11/25 03:49:21;;;;;;;4.45;2.80;;;;;;;;;;5035305;28;20029;-63
2022/11/25 03:51:48;;;;;;;4.07;3.30;;;;;;;;;;5035449;28;20167;-63
2022/11/25 03:54:13;;;;;;;6.45;3.05;;;;;;;;;;5034022;28;20033;-63
2022/11/25 03:56:39;;;;;;;5.25;3.60;;;;;;;;;;5035474;28;20397;-63
2022/11/25 03:59:05;;;;;;;3.83;3.25;;;;;;;;;;5035123;28;20018;-64
2022/11/25 04:01:30;;;;;;;6.97;3.78;;;;;;;;;;5035433;28;20470;-65
2022/11/25 04:03:56;;;;;;;4.13;3.30;;;;;;;;;;5035010;28;20081;-65
2022/11/25 04:06:22;;;;;;;4.63;3.40;;;;;;;;;;5035285;28;20026;-66
2022/11/25 04:08:49;;;;;;;4.97;3.10;;;;;;;;;;5035214;28;20029;-67
2022/11/25 04:11:14;;;;;;;4.80;3.38;;;;;;;;;;5034975;28;20116;-63
2022/11/25 04:13:40;;;;;;;5.07;3.72;;;;;;;;;;5039268;28;20541;-64
2022/11/25 04:16:05;;;;;;;3.33;3.03;;;;;;;;;;5075069;28;20102;-63
2022/11/25 04:18:31;;;;;;;4.15;3.17;;;;;;;;;;5074704;28;20020;-63
2022/11/25 04:20:57;;;;;;;4.57;2.97;;;;;;;;;;5074742;28;20103;-63
2022/11/25 04:23:23;;;;;;;5.15;3.22;;;;;;;;;;5074691;28;20047;-63
2022/11/25 04:25:49;;;;;;;3.95;3.03;;;;;;;;;;5074821;28;20349;-63
2022/11/25 04:28:15;;;;;;;3.88;3.05;;;;;;;;;;5074486;28;20107;-63
2022/11/25 04:30:41;;;;;;;5.32;3.30;;;;;;;;;;5074513;28;20112;-63
2022/11/25 04:33:06;;;;;;;5.03;3.38;;;;;;;;;;5074374;28;20024;-63
2022/11/25 04:35:32;;;;;;;4.95;3.20;;;;;;;;;;5074409;28;20035;-64
2022/11/25 04:37:57;;;;;;;5.25;3.55;;;;;;;;;;5074344;28;20020;-64
2022/11/25 04:40:23;;;;;;;4.50;3.50;;;;;;;;;;5074517;28;20030;-67
2022/11/25 04:42:49;;;;;;;3.95;3.30;;;;;;;;;;5074465;28;20097;-68
2022/11/25 04:45:16;;;;;;;3.40;2.88;;;;;;;;;;5073768;28;20491;-68
2022/11/25 04:47:43;;;;;;;4.28;3.22;;;;;;;;;;5073983;28;20472;-69
2022/11/25 04:50:14;;;;;;;3.92;3.40;;;;;;;;;;5074182;28;20107;-67
2022/11/25 04:52:39;;;;;;;5.22;3.42;;;;;;;;;;5056587;28;20025;-68
2022/11/25 04:55:11;;;;;;;4.13;3.00;;;;;;;;;;5073985;28;20389;-67
2022/11/25 04:57:41;;;;;;;4.30;3.15;;;;;;;;;;5074302;28;20594;-68
2022/11/25 05:00:08;;;;;;;4.35;3.13;;;;;;;;;;5073916;28;20027;-64
2022/11/25 05:02:34;;;;;;;4.45;3.20;;;;;;;;;;5073837;28;20024;-68
2022/11/25 05:05:00;;;;;;;3.22;2.83;;;;;;;;;;5074061;28;20028;-63
2022/11/25 05:07:26;;;;;;;3.40;3.10;;;;;;;;;;5074160;28;20451;-63
2022/11/25 05:09:52;;;;;;;5.40;3.35;;;;;;;;;;5073636;28;20384;-64
2022/11/25 05:12:26;;;;;;;4.30;3.38;;;;;;;;;;5073681;28;20020;-62
2022/11/25 05:14:52;;;;;;;4.75;3.17;;;;;;;;;;5073525;28;20044;-63
2022/11/25 05:17:20;;;;;;;3.95;3.03;;;;;;;;;;5073531;28;20017;-63
2022/11/25 05:19:47;;;;;;;3.70;3.05;;;;;;;;;;5073502;28;20036;-64
2022/11/25 05:22:15;;;;;;;5.38;3.35;;;;;;;;;;5073477;28;20028;-63
2022/11/25 05:24:41;;;;;;;3.85;3.00;;;;;;;;;;5073444;28;20021;-65
2022/11/25 05:27:06;;;;;;;4.13;3.17;;;;;;;;;;5073359;28;20100;-68
2022/11/25 05:29:32;;;;;;;3.13;2.80;;;;;;;;;;5073237;28;20032;-68
2022/11/25 05:31:58;;;;;;;6.05;3.63;;;;;;;;;;5073252;28;20025;-66
2022/11/25 05:34:23;;;;;;;4.35;3.42;;;;;;;;;;5073265;28;20020;-68
2022/11/25 05:36:50;;;;;;;4.05;3.05;;;;;;;;;;5073144;28;20031;-67
2022/11/25 05:39:16;;;;;;;3.47;3.17;;;;;;;;;;5073051;28;20028;-67
2022/11/25 05:41:42;;;;;;;3.60;2.95;;;;;;;;;;5073122;28;20025;-68
2022/11/25 05:44:07;;;;;;;4.30;3.17;;;;;;;;;;5073016;28;20020;-68
2022/11/25 05:46:33;;;;;;;4.03;3.17;;;;;;;;;;5072979;28;20024;-64
2022/11/25 05:48:59;;;;;;;4.05;2.90;;;;;;;;;;5072775;28;20020;-63
2022/11/25 05:51:25;;;;;;;4.78;3.50;;;;;;;;;;5072919;28;20025;-63
2022/11/25 05:53:51;;;;;;;7.50;3.65;;;;;;;;;;5072843;28;20020;-69
2022/11/25 05:56:16;;;;;;;4.35;3.25;;;;;;;;;;5073052;28;20021;-63
2022/11/25 05:58:45;;;;;;;4.28;3.50;;;;;;;;;;5072739;28;20385;-64
2022/11/25 06:01:15;;;;;;;4.10;3.38;;;;;;;;;;5072717;28;20472;-63
2022/11/25 06:03:41;;;;;;;3.85;3.05;;;;;;;;;;5072684;28;20044;-63
2022/11/25 06:06:10;;;;;;;3.85;3.40;;;;;;;;;;5072609;28;20028;-63
2022/11/25 06:08:37;;;;;;;4.45;3.38;;;;;;;;;;5072592;28;20028;-69
2022/11/25 06:11:07;;;;;;;4.85;3.22;;;;;;;;;;5054543;28;20404;-65
2022/11/25 06:13:33;;;;;;;3.72;2.75;;;;;;;;;;5072888;28;20025;-63
2022/11/25 06:15:59;;;;;;;4.43;3.10;;;;;;;;;;5072231;28;20500;-67
2022/11/25 06:18:25;;;;;;;4.18;3.30;;;;;;;;;;5072476;28;20035;-64
2022/11/25 06:20:57;;;;;;;3.85;3.20;;;;;;;;;;5072361;28;20029;-68
2022/11/25 06:23:24;;;;;;;4.10;3.30;;;;;;;;;;5072466;28;20021;-61
2022/11/25 06:25:49;;;;;;;3.50;2.95;;;;;;;;;;5072460;28;20033;-67
2022/11/25 06:28:15;;;;;;;3.33;3.03;;;;;;;;;;5072187;28;20150;-63
2022/11/25 06:30:40;;;;;;;3.70;2.85;;;;;;;;;;5072242;28;20029;-63
2022/11/25 06:33:06;;;;;;;4.28;3.38;;;;;;;;;;5072119;28;20046;-65
2022/11/25 06:35:31;;;;;;;4.72;3.40;;;;;;;;;;5053960;28;20025;-62
2022/11/25 06:37:58;;;;;;;4.05;3.13;;;;;;;;;;5072335;28;20062;-62
2022/11/25 06:40:23;;;;;;;5.07;3.35;;;;;;;;;;5072464;28;20030;-63
2022/11/25 06:42:49;;;;;;;3.38;2.97;;;;;;;;;;5072063;28;20090;-62
2022/11/25 06:45:14;;;;;;;5.38;3.38;;;;;;;;;;5072065;28;20021;-62
2022/11/25 06:47:41;;;;;;;4.05;3.22;;;;;;;;;;5054107;28;20024;-62
2022/11/25 06:50:08;;;;;;;3.13;2.83;;;;;;;;;;5072354;28;20025;-63
2022/11/25 06:52:35;;;;;;;4.63;3.28;;;;;;;;;;5072092;28;20032;-66
2022/11/25 06:55:00;;;;;;;3.83;3.25;;;;;;;;;;5054113;28;20638;-62
2022/11/25 06:57:27;;;;;;;3.65;2.97;;;;;;;;;;5054123;28;20211;-65
2022/11/25 06:59:52;;;;;;;3.90;2.97;;;;;;;;;;5072325;28;20093;-66
2022/11/25 07:02:18;;;;;;;4.50;3.60;;;;;;;;;;5072075;28;20025;-64
2022/11/25 07:04:43;;;;;;;4.00;3.42;;;;;;;;;;5072249;28;20028;-63
2022/11/25 07:07:09;;;;;;;5.32;3.17;;;;;;;;;;5072045;28;20048;-64
2022/11/25 07:09:36;;;;;;;3.53;3.22;;;;;;;;;;5074063;28;20495;-66
2022/11/25 07:12:04;;;;;;;5.07;3.40;;;;;;;;;;5076060;28;20078;-62
2022/11/25 07:14:30;;;;;;;5.22;3.60;;;;;;;;;;5075771;28;20036;-64
2022/11/25 07:16:55;;;;;;;4.20;3.65;;;;;;;;;;5075715;28;20375;-62
2022/11/25 07:19:21;;;;;;;3.55;3.10;;;;;;;;;;5075888;28;20021;-64
2022/11/25 07:21:46;;;;;;;4.25;3.10;;;;;;;;;;5057944;28;20392;-66
2022/11/25 07:24:14;;;;;;;3.75;3.22;;;;;;;;;;5075968;28;20476;-64
2022/11/25 07:26:41;;;;;;;3.22;2.92;;;;;;;;;;5075686;28;20025;-65
2022/11/25 07:29:10;;;;;;;3.70;3.13;;;;;;;;;;5075440;28;20025;-65
2022/11/25 07:31:39;;;;;;;3.70;3.38;;;;;;;;;;5075768;28;20384;-62
2022/11/25 07:34:12;;;;;;;5.43;3.60;;;;;;;;;;5076017;28;20024;-62
2022/11/25 07:36:38;;;;;;;4.88;3.53;;;;;;;;;;5075500;28;20082;-63
2022/11/25 07:39:07;;;;;;;3.42;3.03;;;;;;;;;;5075396;28;20025;-66
2022/11/25 07:41:32;;;;;;;3.88;3.47;;;;;;;;;;5075671;28;20074;-64
2022/11/25 07:44:01;;;;;;;3.80;3.35;;;;;;;;;;5075386;28;20422;-61
2022/11/25 07:46:30;;;;;;;3.60;3.20;;;;;;;;;;5075500;28;20032;-61
2022/11/25 07:49:01;;;;;;;3.10;2.80;;;;;;;;;;5075488;28;20120;-60
2022/11/25 07:51:36;;;;;;;7.00;3.72;;;;;;;;;;5075236;28;20028;-64
2022/11/25 07:54:05;;;;;;;3.67;3.20;;;;;;;;;;5051945;28;20481;-62
2022/11/25 07:56:33;;;;;;;4.18;3.33;;;;;;;;;;5070225;28;20036;-66
2022/11/25 07:59:00;;;;;;;3.55;3.25;;;;;;;;;;5050293;28;20036;-68
2022/11/25 08:01:26;;;;;;;4.18;3.33;;;;;;;;;;5070286;28;20025;-65
2022/11/25 08:03:52;;;;;;;4.07;3.13;;;;;;;;;;5071505;28;20353;-60
2022/11/25 08:06:22;;;;;;;4.30;3.55;;;;;;;;;;5073746;28;20019;-64
2022/11/25 08:08:49;;;;;;;3.92;3.30;;;;;;;;;;5073974;28;20024;-65
2022/11/25 08:11:21;;;;;;;3.83;3.33;;;;;;;;;;5073904;28;20081;-68
2022/11/25 08:13:47;;;;;;;5.13;3.63;;;;;;;;;;5073336;28;20384;-66
2022/11/25 08:16:14;;;;;;;4.95;3.38;;;;;;;;;;5055699;28;20033;-67
2022/11/25 08:18:40;;;;;;;4.20;3.65;;;;;;;;;;5070947;28;20029;-65
2022/11/25 08:21:09;;;;;;;3.95;3.53;;;;;;;;;;5072312;28;20028;-64
2022/11/25 08:23:36;;;;;;;5.00;3.53;;;;;;;;;;5073320;28;20108;-65
2022/11/25 08:26:14;;;;;;;4.28;3.70;;;;;;;;;;5073995;28;20036;-61
2022/11/25 08:28:41;;;;;;;6.03;3.78;;;;;;;;;;5073149;28;20032;-65
2022/11/25 08:31:22;;;;;;;4.65;3.80;;;;;;;;;;5054581;28;20047;-61
2022/11/25 08:33:48;;;;;;;3.80;3.40;;;;;;;;;;5067296;28;20052;-62
2022/11/25 08:36:15;;;;;;;4.80;3.80;;;;;;;;;;5071859;28;20040;-62
2022/11/25 08:38:41;;;;;;;3.88;3.35;;;;;;;;;;5071108;28;20089;-64
2022/11/25 08:41:16;;;;;;;4.28;3.67;;;;;;;;;;5054824;28;20030;-63
2022/11/25 08:43:42;;;;;;;4.18;3.22;;;;;;;;;;5072545;28;20024;-61
2022/11/25 08:46:13;;;;;;;4.55;3.60;;;;;;;;;;5072640;28;20089;-62
2022/11/25 08:48:39;;;;;;;3.75;3.45;;;;;;;;;;5052719;28;20036;-63
2022/11/25 08:51:11;;;;;;;4.95;3.65;;;;;;;;;;5071445;28;20035;-61
2022/11/25 08:53:38;;;;;;;3.85;3.50;;;;;;;;;;5071974;28;20047;-63
2022/11/25 08:56:04;;;;;;;4.68;3.42;;;;;;;;;;5072588;28;20357;-61
2022/11/25 08:58:30;;;;;;;4.47;3.47;;;;;;;;;;5070529;28;20070;-63
2022/11/25 09:00:56;;;;;;;5.80;3.50;;;;;;;;;;5072318;28;20503;-65
2022/11/25 09:03:21;;;;;;;4.70;3.60;;;;;;;;;;5072289;28;20086;-63
2022/11/25 09:05:48;;;;;;;5.20;3.50;;;;;;;;;;5072317;28;20025;-63
2022/11/25 09:08:14;;;;;;;4.13;3.65;;;;;;;;;;5072113;28;20086;-60
2022/11/25 09:10:39;;;;;;;3.78;3.35;;;;;;;;;;5072379;28;20020;-60
2022/11/25 09:13:05;;;;;;;4.03;3.60;;;;;;;;;;5072124;28;20063;-61
2022/11/25 09:15:31;;;;;;;3.83;3.47;;;;;;;;;;5071870;28;20044;-60
2022/11/25 09:18:02;;;;;;;4.70;3.60;;;;;;;;;;5071988;28;20060;-61
2022/11/25 09:20:28;;;;;;;3.45;3.03;;;;;;;;;;5071989;28;20070;-64
2022/11/25 09:22:54;;;;;;;3.78;3.10;;;;;;;;;;5068772;28;20024;-65
2022/11/25 09:25:22;;;;;;;5.30;3.97;;;;;;;;;;5071486;28;20027;-61
2022/11/25 09:27:47;;;;;;;3.92;3.53;;;;;;;;;;5070767;28;20039;-63
2022/11/25 09:30:13;;;;;;;6.88;3.83;;;;;;;;;;5071710;28;20137;-61
2022/11/25 09:32:39;;;;;;;3.50;3.20;;;;;;;;;;5071162;28;20025;-60
2022/11/25 09:35:05;;;;;;;3.95;3.38;;;;;;;;;;5070424;28;20035;-60
2022/11/25 09:37:30;;;;;;;4.63;3.78;;;;;;;;;;5071857;28;20036;-63
2022/11/25 09:39:56;;;;;;;4.43;3.60;;;;;;;;;;5071539;28;20365;-68
2022/11/25 09:48:46;;;;;;;5.30;4.28;;;;;;;;;;5072315;28;20067;-67
2022/11/25 09:51:23;;;;;;;4.30;3.50;;;;;;;;;;5057019;28;20613;-62
2022/11/25 09:54:06;;;;;;;4.50;3.58;;;;;;;;;;5067662;28;20040;-60
2022/11/25 09:56:38;;;;;;;6.15;3.42;;;;;;;;;;5066452;28;20036;-60
2022/11/25 09:59:30;;;;;;;4.05;3.58;;;;;;;;;;5068390;28;20105;-62
2022/11/25 10:02:02;;;;;;;4.13;3.33;;;;;;;;;;5064298;28;20106;-63
2022/11/25 10:04:39;;;;;;;4.93;3.80;;;;;;;;;;5069877;28;20060;-67
2022/11/25 10:07:13;;;;;;;4.65;3.60;;;;;;;;;;5051241;28;20025;-62
2022/11/25 10:09:39;;;;;;;4.47;4.07;;;;;;;;;;5063949;28;20119;-60
2022/11/25 10:12:26;;;;;;;4.63;3.67;;;;;;;;;;5069136;28;20150;-58
2022/11/25 10:14:59;;;;;;;5.95;3.90;;;;;;;;;;5047333;28;20048;-60
2022/11/25 10:17:53;;;;;;;4.93;3.42;;;;;;;;;;5071113;28;20126;-60
2022/11/25 10:20:25;;;;;;;7.00;3.63;;;;;;;;;;5069542;28;20472;-59
2022/11/25 10:22:54;;;;;;;4.88;3.97;;;;;;;;;;5069090;28;20028;-59
2022/11/25 10:25:50;;;;;;;4.43;3.67;;;;;;;;;;5070840;28;20484;-63
2022/11/25 10:28:17;;;;;;;5.05;3.58;;;;;;;;;;5068861;28;20671;-61
2022/11/25 10:31:04;;;;;;;5.70;3.67;;;;;;;;;;5071073;28;20025;-62
2022/11/25 10:33:35;;;;;;;3.95;3.40;;;;;;;;;;5071108;28;20113;-62
2022/11/25 10:36:13;;;;;;;5.03;3.83;;;;;;;;;;5070777;28;20112;-61
2022/11/25 10:39:16;;;;;;;4.30;3.42;;;;;;;;;;5070858;28;20521;-61
2022/11/25 10:41:55;;;;;;;4.10;3.55;;;;;;;;;;5070727;28;20025;-65
2022/11/25 10:44:28;;;;;;;4.75;3.25;;;;;;;;;;5070027;28;20043;-60
2022/11/25 10:47:24;;;;;;;3.53;3.20;;;;;;;;;;5070623;28;20136;-62
2022/11/25 10:50:47;;;;;;;3.97;3.00;;;;;;;;;;5068659;28;20043;-59
2022/11/25 10:53:19;;;;;;;3.72;3.40;;;;;;;;;;4988766;28;20564;-61
2022/11/25 10:56:02;;;;;;;4.00;3.10;;;;;;;;;;5058786;28;20033;-59
2022/11/25 10:58:37;;;;;;;3.97;3.10;;;;;;;;;;5070571;28;20040;-61
2022/11/25 11:01:20;;;;;;;5.70;3.45;;;;;;;;;;5070773;28;20047;-65
2022/11/25 11:04:04;;;;;;;4.38;3.13;;;;;;;;;;5070451;28;20400;-64
2022/11/25 11:06:34;;;;;;;4.40;3.22;;;;;;;;;;5070530;28;20028;-65
2022/11/25 11:09:01;;;;;;;7.82;3.25;;;;;;;;;;5070370;28;20036;-61
2022/11/25 11:11:26;;;;;;;7.22;3.58;;;;;;;;;;5052381;28;20024;-61
2022/11/25 11:14:12;;;;;;;4.00;3.60;;;;;;;;;;5070202;28;20491;-61
2022/11/25 11:16:41;;;;;;;4.22;3.40;;;;;;;;;;5070658;28;20383;-60
2022/11/25 11:19:21;;;;;;;4.40;3.30;;;;;;;;;;5070383;28;20097;-62
2022/11/25 11:21:46;;;;;;;4.07;3.30;;;;;;;;;;5070421;28;20033;-61
2022/11/25 11:24:41;;;;;;;3.83;3.45;;;;;;;;;;5070554;28;20036;-61
2022/11/25 11:27:22;;;;;;;4.30;3.65;;;;;;;;;;5036963;28;20041;-67
2022/11/25 11:30:01;;;;;;;3.67;3.25;;;;;;;;;;5061811;28;20028;-66
2022/11/25 11:32:28;;;;;;;7.70;4.00;;;;;;;;;;5070369;28;20031;-66
2022/11/25 11:35:19;;;;;;;6.00;3.90;;;;;;;;;;5070234;28;20139;-62
2022/11/25 11:37:51;;;;;;;4.65;3.33;;;;;;;;;;5070595;28;20040;-68
2022/11/25 11:40:39;;;;;;;4.63;3.55;;;;;;;;;;5070148;28;20032;-68
2022/11/25 11:43:05;;;;;;;5.20;3.70;;;;;;;;;;5070524;28;20086;-62
2022/11/25 11:45:43;;;;;;;8.30;3.55;;;;;;;;;;5069989;28;20064;-64
2022/11/25 11:48:14;;;;;;;4.00;2.97;;;;;;;;;;5070079;28;20138;-61
2022/11/25 11:50:46;;;;;;;4.15;3.58;;;;;;;;;;5070103;28;20111;-62
2022/11/25 11:53:22;;;;;;;4.22;3.50;;;;;;;;;;5070078;28;20100;-64
2022/11/25 11:55:58;;;;;;;4.63;3.70;;;;;;;;;;5072123;28;20032;-64
2022/11/25 11:58:33;;;;;;;5.40;3.33;;;;;;;;;;5073661;28;20112;-64
2022/11/25 12:01:21;;;;;;;5.28;3.42;;;;;;;;;;5055573;28;20024;-65
2022/11/25 12:04:07;;;;;;;4.75;3.70;;;;;;;;;;5073343;28;20043;-63
2022/11/25 12:06:36;;;;;;;5.93;3.50;;;;;;;;;;5073401;28;20028;-60
2022/11/25 12:09:12;;;;;;;7.15;3.28;;;;;;;;;;5073308;28;20040;-60
2022/11/25 12:11:43;;;;;;;8.40;3.30;;;;;;;;;;5073450;28;20051;-60
2022/11/25 12:14:50;;;;;;;3.90;3.50;;;;;;;;;;5073169;28;20051;-59
2022/11/25 12:17:34;;;;;;;3.90;3.50;;;;;;;;;;5055061;28;20131;-60
2022/11/25 12:20:13;;;;;;;6.22;4.03;;;;;;;;;;5073456;28;20033;-61
2022/11/25 12:22:55;;;;;;;5.03;3.60;;;;;;;;;;5073183;28;20028;-65
2022/11/25 12:25:28;;;;;;;5.43;3.60;;;;;;;;;;5073087;28;20111;-61
2022/11/25 12:27:59;;;;;;;6.43;3.70;;;;;;;;;;5073327;28;20031;-62
2022/11/25 12:30:49;;;;;;;4.32;3.40;;;;;;;;;;5072792;28;20049;-61
2022/11/25 12:33:27;;;;;;;5.53;3.22;;;;;;;;;;5072583;28;20041;-61
2022/11/25 12:36:14;;;;;;;5.43;3.92;;;;;;;;;;5072897;28;20028;-62
2022/11/25 12:38:46;;;;;;;4.75;3.78;;;;;;;;;;5072737;28;20074;-61
2022/11/25 12:41:40;;;;;;;7.50;4.30;;;;;;;;;;5072817;28;20532;-67
2022/11/25 12:44:16;;;;;;;5.53;3.90;;;;;;;;;;5072726;28;20033;-66
2022/11/25 12:46:49;;;;;;;6.47;3.50;;;;;;;;;;5072859;28;20016;-64
2022/11/25 12:49:24;;;;;;;8.52;3.35;;;;;;;;;;5072593;28;20032;-65
2022/11/25 12:52:27;;;;;;;9.63;3.42;;;;;;;;;;5072339;28;20067;-66
2022/11/25 12:55:12;;;;;;;8.90;3.60;;;;;;;;;;5072636;28;20032;-68
2022/11/25 12:57:59;;;;;;;7.10;3.55;;;;;;;;;;5072306;28;20020;-65
2022/11/25 13:01:02;;;;;;;5.15;3.33;;;;;;;;;;5072303;28;20081;-65
2022/11/25 13:03:43;;;;;;;7.85;3.78;;;;;;;;;;5054177;28;20052;-62
2022/11/25 13:06:30;;;;;;;7.60;3.50;;;;;;;;;;5071790;28;20103;-63
2022/11/25 13:09:11;;;;;;;13.15;3.90;;;;;;;;;;5070396;28;20047;-66
2022/11/25 13:12:18;;;;;;;12.38;3.72;;;;;;;;;;5070027;28;20043;-64
2022/11/25 13:15:21;;;;;;;10.90;4.15;;;;;;;;;;5054071;28;20109;-67
2022/11/25 13:17:53;;;;;;;12.07;4.38;;;;;;;;;;5053990;28;20028;-68
2022/11/25 13:20:32;;;;;;;11.18;4.22;;;;;;;;;;5054145;28;20032;-64
2022/11/25 13:23:04;;;;;;;6.90;4.05;;;;;;;;;;5053907;28;20025;-63
2022/11/25 13:25:32;;;;;;;5.65;3.65;;;;;;;;;;5071824;28;20048;-65
2022/11/25 13:28:00;;;;;;;7.38;4.20;;;;;;;;;;5071548;28;20059;-62
2022/11/25 13:30:31;;;;;;;10.27;3.88;;;;;;;;;;5053756;28;20389;-63
2022/11/25 13:33:12;;;;;;;11.38;5.50;;;;;;;;;;5071747;28;20039;-67
2022/11/25 13:35:54;;;;;;;7.32;4.30;;;;;;;;;;5053571;28;20039;-63
2022/11/25 13:38:36;;;;;;;14.63;4.25;;;;;;;;;;5071725;28;20029;-66
2022/11/25 13:41:22;;;;;;;10.57;4.68;;;;;;;;;;5071554;28;20107;-70
2022/11/25 13:43:53;;;;;;;8.65;3.75;;;;;;;;;;5053594;28;20032;-70
2022/11/25 13:46:52;;;;;;;9.25;4.15;;;;;;;;;;5071579;28;20055;-67
2022/11/25 13:49:21;;;;;;;8.82;3.95;;;;;;;;;;5027275;28;20040;-63
2022/11/25 13:51:55;;;;;;;8.43;3.97;;;;;;;;;;5053343;28;20162;-68
2022/11/25 13:54:30;;;;;;;9.00;4.15;;;;;;;;;;5071558;28;20511;-69
2022/11/25 13:57:17;;;;;;;10.60;4.32;;;;;;;;;;5053117;28;20079;-67
2022/11/25 13:59:43;;;;;;;6.75;4.15;;;;;;;;;;5071165;28;20036;-70
2022/11/25 14:02:26;;;;;;;7.43;4.22;;;;;;;;;;5071307;28;20017;-68
2022/11/25 14:05:04;;;;;;;7.90;4.30;;;;;;;;;;5071145;28;20028;-68
2022/11/25 14:07:56;;;;;;;9.55;4.50;;;;;;;;;;5071264;28;20033;-64
2022/11/25 14:10:49;;;;;;;7.50;4.50;;;;;;;;;;5071043;28;20107;-62
2022/11/25 14:13:29;;;;;;;7.53;4.07;;;;;;;;;;5052911;28;20044;-64
2022/11/25 14:16:29;;;;;;;6.20;4.03;;;;;;;;;;5052880;28;20368;-63
2022/11/25 14:19:13;;;;;;;10.23;4.35;;;;;;;;;;5051968;28;20037;-65
2022/11/25 14:22:29;;;;;;;11.15;4.93;;;;;;;;;;5052888;28;20365;-62
2022/11/25 14:25:12;;;;;;;8.52;4.18;;;;;;;;;;5054306;28;20048;-65
2022/11/25 14:27:38;;;;;;;7.32;3.65;;;;;;;;;;5070910;28;20035;-63
2022/11/25 14:30:08;;;;;;;11.32;4.28;;;;;;;;;;5070793;28;20028;-62
2022/11/25 14:32:39;;;;;;;;;;;;;;;;;;5071226;28;20028;-63
2022/11/25 14:35:12;;;;;;;24.92;14.82;;;;;;;;;;5070868;28;19916;-66
2022/11/25 14:38:03;;;;;;;29.23;16.90;;;;;;;;;;5036698;28;20024;-62
2022/11/25 14:40:33;;;;;;;16.60;11.30;;;;;;;;;;5070663;28;20021;-64
2022/11/25 14:43:04;;;;;;;25.30;11.90;;;;;;;;;;5070708;28;20056;-61
2022/11/25 14:45:33;;;;;;;24.30;11.65;;;;;;;;;;5052695;28;20524;-67
2022/11/25 14:48:12;;;;;;;16.45;9.80;;;;;;;;;;5070726;28;20033;-63
2022/11/25 14:50:38;;;;;;;19.92;10.10;;;;;;;;;;5068807;28;20391;-62
2022/11/25 14:53:07;;;;;;;23.88;9.35;;;;;;;;;;5070598;28;20020;-63
2022/11/25 14:55:32;;;;;;;14.60;8.50;;;;;;;;;;5070287;28;20028;-68
2022/11/25 14:57:58;;;;;;;16.50;7.63;;;;;;;;;;5070576;28;20035;-62
2022/11/25 15:00:24;;;;;;;11.88;6.95;;;;;;;;;;5070442;28;20025;-65
2022/11/25 15:02:57;;;;;;;14.25;6.47;;;;;;;;;;5070870;28;20496;-69
2022/11/25 15:05:34;;;;;;;14.50;6.68;;;;;;;;;;5070574;28;20029;-63
2022/11/25 15:08:10;;;;;;;11.25;6.07;;;;;;;;;;5070568;28;20107;-63
2022/11/25 15:10:38;;;;;;;10.68;6.05;;;;;;;;;;5070548;28;20048;-62
2022/11/25 15:13:25;;;;;;;10.43;5.75;;;;;;;;;;5070406;28;20034;-63
2022/11/25 15:15:54;;;;;;;10.35;6.03;;;;;;;;;;5070355;28;20041;-68
2022/11/25 15:18:22;;;;;;;17.92;5.97;;;;;;;;;;5052882;28;20073;-68
2022/11/25 15:21:00;;;;;;;7.45;5.57;;;;;;;;;;5070458;28;20060;-65